Time;durP1;ratioP1;P1;durP2;ratioP2;P2;SDS_P1;SDS_P2;PMS_P1;PMS_P2;Temp;Humidity;BMP_temperature;BMP_pressure;BME280_temperature;BME280_humidity;BME280_pressure;Samples;Min_cycle;Max_cycle;Signal;HPM_P1;HPM_P2
2020/12/17 00:00:15;;;;;;;37.38;19.15;;;3.60;99.90;;;;;;5032692;28;20126;-73
2020/12/17 00:02:41;;;;;;;40.40;21.30;;;3.60;99.90;;;;;;5001171;28;20038;-75
2020/12/17 00:05:07;;;;;;;37.75;20.23;;;3.60;99.90;;;;;;5031788;28;20033;-74
2020/12/17 00:07:33;;;;;;;36.25;18.90;;;3.60;99.90;;;;;;5022345;28;20550;-73
2020/12/17 00:09:58;;;;;;;35.80;18.98;;;3.60;99.90;;;;;;5031544;28;20033;-74
2020/12/17 00:12:24;;;;;;;31.45;17.75;;;3.50;99.90;;;;;;5018980;28;20029;-73
2020/12/17 00:14:50;;;;;;;28.77;16.15;;;3.50;99.90;;;;;;5033469;28;20022;-72
2020/12/17 00:17:16;;;;;;;28.73;15.63;;;3.40;99.90;;;;;;5032957;28;20026;-72
2020/12/17 00:19:41;;;;;;;26.67;15.02;;;3.40;99.90;;;;;;5032764;28;20063;-73
2020/12/17 00:22:07;;;;;;;39.38;18.50;;;3.50;99.90;;;;;;5032789;28;20025;-74
2020/12/17 00:24:33;;;;;;;33.35;19.23;;;3.50;99.90;;;;;;5007449;28;20116;-76
2020/12/17 00:26:58;;;;;;;38.90;20.02;;;3.50;99.90;;;;;;5026024;28;20029;-74
2020/12/17 00:29:24;;;;;;;25.80;15.73;;;3.50;99.90;;;;;;5033077;28;20021;-72
2020/12/17 00:31:52;;;;;;;36.97;18.95;;;3.50;99.90;;;;;;5032734;28;20071;-74
2020/12/17 00:34:19;;;;;;;28.50;16.23;;;3.40;99.90;;;;;;5032113;28;20045;-72
2020/12/17 00:36:45;;;;;;;33.30;18.48;;;3.40;99.90;;;;;;5032758;28;20029;-73
2020/12/17 00:39:11;;;;;;;32.15;17.75;;;3.40;99.90;;;;;;5032352;28;20029;-73
2020/12/17 00:41:37;;;;;;;32.65;19.13;;;3.40;99.90;;;;;;5005777;28;20029;-74
2020/12/17 00:44:03;;;;;;;35.58;18.73;;;3.40;99.90;;;;;;5027666;28;20033;-72
2020/12/17 00:46:29;;;;;;;31.83;17.05;;;3.40;99.90;;;;;;5032577;28;20030;-73
2020/12/17 00:48:55;;;;;;;35.00;18.40;;;3.30;99.90;;;;;;5002017;28;20478;-72
2020/12/17 00:51:21;;;;;;;38.30;18.83;;;3.30;99.90;;;;;;5021695;28;20136;-75
2020/12/17 00:53:47;;;;;;;32.45;17.23;;;;;;;;;;5011166;28;20151;-73
2020/12/17 00:56:14;;;;;;;32.70;16.48;;;;;;;;;;5028334;28;20126;-73
2020/12/17 00:58:42;;;;;;;30.48;15.32;;;;;;;;;;5030835;28;20383;-72
2020/12/17 01:01:10;;;;;;;27.95;15.43;;;;;;;;;;5029945;28;20064;-72
2020/12/17 01:03:36;;;;;;;30.73;15.15;;;;;;;;;;5030468;28;20022;-73
2020/12/17 01:06:03;;;;;;;31.05;17.75;;;;;;;;;;5032418;28;20463;-74
2020/12/17 01:08:30;;;;;;;32.55;18.05;;;;;;;;;;5031837;28;20018;-73
2020/12/17 01:10:57;;;;;;;29.60;15.77;;;;;;;;;;5023547;28;20101;-73
2020/12/17 01:13:25;;;;;;;27.70;15.68;;;;;;;;;;5014259;28;20518;-70
2020/12/17 01:15:51;;;;;;;29.70;16.88;;;2.90;99.90;;;;;;5031972;28;20022;-70
2020/12/17 01:18:17;;;;;;;32.05;17.35;;;3.00;99.90;;;;;;5031812;28;20021;-75
2020/12/17 01:20:42;;;;;;;38.60;18.30;;;2.90;99.90;;;;;;5032347;28;20029;-73
2020/12/17 01:23:08;;;;;;;28.20;15.63;;;3.00;99.90;;;;;;5012746;28;20468;-74
2020/12/17 01:25:34;;;;;;;26.00;14.88;;;3.00;99.90;;;;;;5024111;28;20444;-72
2020/12/17 01:27:59;;;;;;;33.15;17.50;;;2.90;99.90;;;;;;4992334;28;20030;-72
2020/12/17 01:30:25;;;;;;;37.38;17.80;;;3.00;99.90;;;;;;5028378;28;20059;-74
2020/12/17 01:32:53;;;;;;;33.28;16.88;;;2.90;99.90;;;;;;5031290;28;20434;-74
2020/12/17 01:35:19;;;;;;;27.17;15.82;;;3.00;99.90;;;;;;5031980;28;20040;-74
2020/12/17 01:37:45;;;;;;;32.03;17.65;;;2.90;99.90;;;;;;5032004;28;20025;-74
2020/12/17 01:40:11;;;;;;;33.47;17.23;;;2.90;99.90;;;;;;5020850;28;20037;-74
2020/12/17 01:42:37;;;;;;;39.70;18.50;;;3.00;99.90;;;;;;5026952;28;20044;-73
2020/12/17 01:45:04;;;;;;;31.73;17.13;;;2.90;99.90;;;;;;5021265;28;20486;-73
2020/12/17 01:47:37;;;;;;;29.10;16.10;;;3.00;99.90;;;;;;5031924;28;20053;-73
2020/12/17 01:50:06;;;;;;;40.67;18.48;;;3.10;99.90;;;;;;5028844;28;20033;-74
2020/12/17 01:52:33;;;;;;;30.40;16.73;;;3.10;99.90;;;;;;5032383;28;20025;-74
2020/12/17 01:55:02;;;;;;;34.00;17.65;;;3.00;99.90;;;;;;5023313;28;20026;-75
2020/12/17 01:57:32;;;;;;;31.42;18.45;;;3.00;99.90;;;;;;5026250;28;20395;-74
2020/12/17 02:00:06;;;;;;;35.80;19.27;;;3.00;99.90;;;;;;5031660;28;20052;-74
2020/12/17 02:02:33;;;;;;;38.38;20.88;;;2.90;99.90;;;;;;5014574;28;20033;-73
2020/12/17 02:05:00;;;;;;;42.75;21.67;;;2.80;99.90;;;;;;5016343;28;20508;-74
2020/12/17 02:07:26;;;;;;;42.80;21.60;;;2.80;99.90;;;;;;5024861;28;20113;-72
2020/12/17 02:09:53;;;;;;;47.10;23.20;;;2.70;99.90;;;;;;5031145;28;20065;-73
2020/12/17 02:12:19;;;;;;;50.80;29.45;;;2.70;99.90;;;;;;5030204;28;20093;-74
2020/12/17 02:14:45;;;;;;;68.32;39.58;;;2.70;99.90;;;;;;5003030;28;20180;-73
2020/12/17 02:17:10;;;;;;;74.25;44.33;;;2.70;99.90;;;;;;5028884;28;20033;-75
2020/12/17 02:19:36;;;;;;;76.60;47.53;;;2.70;99.90;;;;;;5032016;28;20031;-75
2020/12/17 02:22:02;;;;;;;74.78;45.00;;;2.70;99.90;;;;;;5031513;28;20041;-75
2020/12/17 02:24:28;;;;;;;67.82;43.08;;;2.80;99.90;;;;;;5032063;28;20064;-75
2020/12/17 02:26:54;;;;;;;78.22;41.05;;;2.80;99.90;;;;;;5035348;28;20025;-75
2020/12/17 02:29:20;;;;;;;65.70;35.78;;;2.90;99.90;;;;;;5034841;28;20072;-76
2020/12/17 02:31:46;;;;;;;58.17;31.90;;;2.80;99.90;;;;;;5034716;28;20022;-75
2020/12/17 02:34:13;;;;;;;73.68;37.45;;;2.80;99.90;;;;;;5034597;28;20029;-74
2020/12/17 02:36:40;;;;;;;76.00;39.83;;;2.70;99.90;;;;;;5034679;28;20021;-75
2020/12/17 02:39:05;;;;;;;79.65;42.55;;;2.70;99.90;;;;;;5034138;28;20021;-74
2020/12/17 02:41:31;;;;;;;73.78;41.55;;;2.70;99.90;;;;;;5034471;28;20032;-74
2020/12/17 02:43:57;;;;;;;77.05;40.05;;;2.60;99.90;;;;;;5021281;28;20455;-73
2020/12/17 02:46:23;;;;;;;69.47;37.03;;;2.60;99.90;;;;;;5028004;28;20045;-73
2020/12/17 02:48:50;;;;;;;64.03;37.17;;;2.60;99.90;;;;;;5015016;28;20026;-74
2020/12/17 02:51:16;;;;;;;64.65;34.58;;;2.40;99.90;;;;;;5015145;28;20030;-74
2020/12/17 02:53:42;;;;;;;52.97;29.08;;;2.50;99.90;;;;;;5014109;28;20033;-75
2020/12/17 02:56:07;;;;;;;53.28;28.85;;;2.50;99.90;;;;;;5015302;28;20036;-75
2020/12/17 02:58:33;;;;;;;58.75;30.00;;;2.50;99.90;;;;;;5014915;28;20050;-74
2020/12/17 03:00:59;;;;;;;55.55;30.58;;;2.50;99.90;;;;;;5013826;28;20045;-74
2020/12/17 03:03:25;;;;;;;64.45;32.53;;;2.50;99.90;;;;;;5014459;28;20431;-75
2020/12/17 03:05:52;;;;;;;55.20;32.13;;;2.60;99.90;;;;;;5021332;28;20042;-76
2020/12/17 03:08:18;;;;;;;68.05;31.48;;;2.60;99.90;;;;;;5029039;28;20021;-73
2020/12/17 03:10:43;;;;;;;56.95;31.17;;;2.70;99.90;;;;;;5011624;28;20474;-72
2020/12/17 03:13:09;;;;;;;57.20;29.48;;;2.70;99.90;;;;;;5032891;28;20029;-71
2020/12/17 03:15:35;;;;;;;53.63;28.50;;;2.70;99.90;;;;;;5031835;28;20030;-75
2020/12/17 03:18:00;;;;;;;76.25;31.98;;;2.70;99.90;;;;;;5032797;28;20026;-72
2020/12/17 03:20:26;;;;;;;68.18;28.02;;;2.70;99.90;;;;;;5032469;28;20460;-72
2020/12/17 03:22:52;;;;;;;57.00;25.88;;;2.70;99.90;;;;;;5033210;28;20370;-71
2020/12/17 03:25:18;;;;;;;155.52;32.95;;;2.70;99.90;;;;;;5033990;28;20038;-73
2020/12/17 03:27:43;;;;;;;185.07;35.47;;;2.70;99.90;;;;;;5033788;28;20028;-72
2020/12/17 03:30:09;;;;;;;97.57;28.05;;;2.60;99.90;;;;;;5033411;28;20025;-74
2020/12/17 03:32:35;;;;;;;135.63;28.17;;;2.60;99.90;;;;;;5033921;28;20033;-74
2020/12/17 03:35:01;;;;;;;126.85;28.98;;;2.60;99.90;;;;;;5034072;28;20372;-73
2020/12/17 03:37:26;;;;;;;56.40;24.90;;;2.50;99.90;;;;;;5033040;28;20033;-74
2020/12/17 03:39:52;;;;;;;68.68;25.55;;;2.60;99.90;;;;;;5027281;28;20503;-74
2020/12/17 03:42:19;;;;;;;56.58;26.08;;;2.50;99.90;;;;;;5033364;28;20038;-75
2020/12/17 03:44:45;;;;;;;66.15;26.25;;;2.50;99.90;;;;;;5033816;28;20458;-74
2020/12/17 03:47:11;;;;;;;44.28;23.13;;;2.50;99.90;;;;;;5003195;28;20036;-73
2020/12/17 03:49:37;;;;;;;38.67;22.23;;;2.50;99.90;;;;;;5032411;28;20384;-72
2020/12/17 03:52:03;;;;;;;42.90;23.45;;;2.50;99.90;;;;;;5032154;28;20099;-72
2020/12/17 03:54:28;;;;;;;44.10;22.30;;;2.50;99.90;;;;;;5013943;28;20448;-72
2020/12/17 03:56:54;;;;;;;45.47;24.33;;;2.50;99.90;;;;;;5027735;28;20432;-72
2020/12/17 03:59:20;;;;;;;45.25;22.75;;;2.50;99.90;;;;;;5025485;28;20083;-72
2020/12/17 04:01:46;;;;;;;43.72;26.15;;;2.30;99.90;;;;;;5033537;28;20376;-74
2020/12/17 04:04:11;;;;;;;58.83;27.90;;;2.20;99.90;;;;;;5033712;28;20022;-72
2020/12/17 04:06:37;;;;;;;103.40;31.38;;;2.30;99.90;;;;;;4997957;28;20026;-72
2020/12/17 04:09:03;;;;;;;170.60;32.53;;;2.40;99.90;;;;;;5029527;28;20755;-72
2020/12/17 04:11:29;;;;;;;173.18;34.28;;;2.30;99.90;;;;;;5033185;28;20025;-72
2020/12/17 04:13:54;;;;;;;81.50;27.50;;;2.30;99.90;;;;;;5033403;28;20037;-72
2020/12/17 04:16:20;;;;;;;136.02;27.85;;;2.30;99.90;;;;;;5033539;28;20379;-73
2020/12/17 04:18:46;;;;;;;110.05;26.10;;;2.20;99.90;;;;;;5032931;28;20026;-71
2020/12/17 04:21:12;;;;;;;90.70;25.85;;;2.10;99.90;;;;;;5033368;28;20032;-73
2020/12/17 04:23:38;;;;;;;95.57;26.38;;;2.00;99.90;;;;;;5033163;28;20029;-73
2020/12/17 04:26:03;;;;;;;91.72;23.52;;;2.00;99.90;;;;;;5033345;28;20048;-73
2020/12/17 04:28:29;;;;;;;84.60;25.70;;;2.00;99.90;;;;;;5026879;28;20026;-73
2020/12/17 04:30:55;;;;;;;66.38;26.67;;;1.90;99.90;;;;;;5027539;28;20499;-72
2020/12/17 04:33:21;;;;;;;67.30;24.25;;;1.80;99.90;;;;;;5032678;28;20037;-72
2020/12/17 04:35:47;;;;;;;50.90;22.58;;;1.90;99.90;;;;;;5033294;28;20026;-73
2020/12/17 04:38:13;;;;;;;64.65;25.05;;;1.90;99.90;;;;;;5033426;28;20378;-71
2020/12/17 04:40:39;;;;;;;53.05;26.13;;;1.80;99.90;;;;;;5022347;28;20036;-72
2020/12/17 04:43:05;;;;;;;97.93;30.90;;;1.70;99.90;;;;;;5033428;28;20029;-72
2020/12/17 04:45:32;;;;;;;66.00;26.73;;;1.50;99.90;;;;;;5022473;28;20069;-73
2020/12/17 04:47:59;;;;;;;75.38;27.08;;;1.50;99.90;;;;;;5017991;28;20018;-73
2020/12/17 04:50:26;;;;;;;57.15;27.42;;;1.60;99.90;;;;;;5000506;28;20117;-72
2020/12/17 04:52:53;;;;;;;57.60;26.10;;;1.70;99.90;;;;;;4998101;28;20388;-73
2020/12/17 04:55:24;;;;;;;69.00;27.60;;;1.80;99.90;;;;;;5000384;28;20018;-72
2020/12/17 04:57:51;;;;;;;70.03;30.55;;;1.80;99.90;;;;;;5020045;28;20491;-73
2020/12/17 05:00:17;;;;;;;73.55;30.10;;;1.90;99.90;;;;;;5023093;28;20502;-73
2020/12/17 05:02:46;;;;;;;76.35;31.80;;;1.60;99.90;;;;;;5012764;28;20030;-73
2020/12/17 05:05:12;;;;;;;82.47;31.42;;;1.40;99.90;;;;;;5016726;28;20018;-73
2020/12/17 05:07:40;;;;;;;85.88;36.20;;;1.30;99.90;;;;;;5024903;28;20026;-72
2020/12/17 05:10:06;;;;;;;75.55;33.72;;;1.20;99.90;;;;;;5025021;28;20363;-73
2020/12/17 05:12:32;;;;;;;63.85;32.97;;;1.30;99.90;;;;;;5023522;28;20029;-73
2020/12/17 05:14:57;;;;;;;94.35;31.13;;;1.50;99.90;;;;;;5027682;28;20033;-72
2020/12/17 05:17:23;;;;;;;69.97;32.10;;;1.70;99.90;;;;;;5031804;28;20026;-72
2020/12/17 05:19:50;;;;;;;58.85;32.25;;;1.80;99.90;;;;;;5026802;28;20076;-71
2020/12/17 05:22:17;;;;;;;45.38;24.45;;;1.90;99.90;;;;;;5024238;28;20026;-71
2020/12/17 05:24:46;;;;;;;46.53;25.35;;;1.80;99.90;;;;;;5026518;28;20026;-73
2020/12/17 05:27:12;;;;;;;40.05;24.58;;;1.90;99.90;;;;;;5028108;28;20033;-72
2020/12/17 05:29:39;;;;;;;128.98;58.53;;;2.10;99.90;;;;;;5014403;28;20167;-73
2020/12/17 05:32:06;;;;;;;154.02;74.15;;;2.00;99.90;;;;;;5032730;28;20104;-72
2020/12/17 05:34:36;;;;;;;98.47;46.53;;;2.00;99.90;;;;;;5032489;28;20025;-72
2020/12/17 05:37:06;;;;;;;64.90;34.45;;;2.00;99.90;;;;;;5032675;28;20049;-71
2020/12/17 05:39:32;;;;;;;57.88;29.05;;;2.10;99.90;;;;;;5032580;28;20071;-73
2020/12/17 05:41:58;;;;;;;43.10;24.33;;;2.20;99.90;;;;;;5032283;28;20025;-73
2020/12/17 05:44:28;;;;;;;38.63;21.05;;;2.30;99.90;;;;;;5033318;28;20025;-73
2020/12/17 05:46:55;;;;;;;39.58;22.10;;;2.30;99.90;;;;;;5023291;28;20028;-73
2020/12/17 05:49:29;;;;;;;42.95;20.08;;;2.40;99.90;;;;;;5030099;28;20112;-73
2020/12/17 05:52:15;;;;;;;70.22;24.13;;;2.50;99.90;;;;;;5021063;28;20652;-71
2020/12/17 05:54:58;;;;;;;38.78;21.92;;;2.50;99.90;;;;;;5020987;28;20034;-71
2020/12/17 05:57:24;;;;;;;73.30;28.97;;;2.50;99.90;;;;;;5018562;28;20036;-72
2020/12/17 06:00:06;;;;;;;124.45;43.05;;;2.50;99.90;;;;;;5022453;28;20034;-72
2020/12/17 06:02:33;;;;;;;142.30;46.45;;;2.20;99.90;;;;;;5028220;28;20029;-72
2020/12/17 06:05:13;;;;;;;122.00;43.72;;;2.00;99.90;;;;;;5030624;28;20040;-72
2020/12/17 06:07:47;;;;;;;200.10;50.08;;;1.80;99.90;;;;;;5031087;28;20057;-72
2020/12/17 06:10:27;;;;;;;186.32;49.22;;;1.70;99.90;;;;;;5031477;28;20064;-69
2020/12/17 06:12:57;;;;;;;179.30;47.38;;;1.60;99.90;;;;;;5035998;28;20120;-72
2020/12/17 06:15:28;;;;;;;206.73;49.35;;;1.50;99.90;;;;;;5036318;28;20455;-72
2020/12/17 06:17:55;;;;;;;217.75;40.58;;;1.50;99.90;;;;;;5034138;28;20032;-72
2020/12/17 06:20:22;;;;;;;184.38;41.83;;;1.40;99.90;;;;;;5004395;28;20087;-71
2020/12/17 06:22:53;;;;;;;131.07;42.03;;;1.30;99.90;;;;;;5035626;28;20083;-72
2020/12/17 06:25:20;;;;;;;220.68;58.78;;;1.30;99.90;;;;;;5034860;28;20356;-72
2020/12/17 06:27:48;;;;;;;155.40;42.47;;;1.30;99.90;;;;;;5016251;28;20022;-72
2020/12/17 06:30:17;;;;;;;100.80;39.03;;;1.30;99.90;;;;;;5015832;28;20175;-72
2020/12/17 06:32:44;;;;;;;86.13;36.53;;;1.30;99.90;;;;;;5034602;28;20033;-72
2020/12/17 06:35:21;;;;;;;79.65;35.50;;;1.50;99.90;;;;;;5011894;28;20025;-72
2020/12/17 06:37:48;;;;;;;60.60;29.55;;;1.50;99.90;;;;;;5029366;28;20033;-72
2020/12/17 06:40:23;;;;;;;64.38;29.23;;;1.60;99.90;;;;;;5026794;28;20067;-71
2020/12/17 06:42:49;;;;;;;45.78;27.10;;;1.70;99.90;;;;;;5007215;28;20061;-71
2020/12/17 06:45:27;;;;;;;55.13;24.20;;;1.70;99.90;;;;;;5024066;28;20061;-73
2020/12/17 06:47:53;;;;;;;39.17;22.88;;;1.80;99.90;;;;;;5033245;28;20029;-73
2020/12/17 06:50:20;;;;;;;36.85;21.55;;;1.70;99.90;;;;;;5026037;28;20148;-70
2020/12/17 06:53:08;;;;;;;50.00;24.13;;;1.80;99.90;;;;;;5022525;28;20030;-71
2020/12/17 06:55:48;;;;;;;38.85;23.48;;;1.90;99.90;;;;;;5022019;28;20018;-72
2020/12/17 06:58:22;;;;;;;39.80;22.92;;;1.80;99.90;;;;;;5025236;28;20029;-72
2020/12/17 07:00:52;;;;;;;44.83;25.75;;;1.80;99.90;;;;;;5003394;28;20191;-73
2020/12/17 07:03:58;;;;;;;44.05;24.20;;;1.80;99.90;;;;;;5023468;28;20046;-73
2020/12/17 07:06:25;;;;;;;76.07;32.80;;;1.70;99.90;;;;;;4960406;28;20039;-71
2020/12/17 07:08:53;;;;;;;79.50;33.28;;;1.50;99.90;;;;;;4976402;28;20050;-73
2020/12/17 07:11:41;;;;;;;85.28;37.38;;;1.50;99.90;;;;;;4960935;28;20035;-70
2020/12/17 07:14:17;;;;;;;99.18;39.65;;;1.40;99.90;;;;;;4958434;28;20126;-73
2020/12/17 07:16:59;;;;;;;76.75;32.33;;;1.40;99.90;;;;;;4962223;28;20033;-73
2020/12/17 07:19:37;;;;;;;72.20;31.10;;;1.60;99.90;;;;;;4932106;29;20540;-72
2020/12/17 07:22:12;;;;;;;78.82;33.47;;;1.70;99.90;;;;;;4954284;29;20023;-73
2020/12/17 07:24:40;;;;;;;78.60;30.52;;;1.80;99.90;;;;;;4954221;29;20066;-73
2020/12/17 07:27:11;;;;;;;59.28;30.58;;;1.80;99.90;;;;;;4960653;28;20032;-73
2020/12/17 07:30:00;;;;;;;55.97;29.42;;;1.90;99.90;;;;;;4964449;28;20081;-73
2020/12/17 07:32:45;;;;;;;50.95;25.67;;;2.00;99.90;;;;;;4953664;28;20569;-71
2020/12/17 07:35:10;;;;;;;47.40;27.27;;;2.00;99.90;;;;;;4958965;28;20037;-72
2020/12/17 07:37:47;;;;;;;67.03;27.48;;;2.10;99.90;;;;;;5009275;28;20041;-71
2020/12/17 07:40:21;;;;;;;75.75;26.70;;;2.10;99.90;;;;;;5020300;28;20049;-71
2020/12/17 07:43:07;;;;;;;84.53;28.35;;;2.00;99.90;;;;;;5026272;28;20080;-71
2020/12/17 07:45:53;;;;;;;85.20;29.35;;;2.00;99.90;;;;;;5022927;28;20088;-72
2020/12/17 07:48:36;;;;;;;173.70;30.08;;;2.20;99.90;;;;;;5028615;28;20025;-71
2020/12/17 07:51:07;;;;;;;97.18;26.33;;;2.30;99.90;;;;;;5028904;28;20075;-73
2020/12/17 07:53:33;;;;;;;117.00;27.75;;;2.20;99.90;;;;;;5029373;28;20484;-73
2020/12/17 07:56:00;;;;;;;116.13;29.23;;;2.20;99.90;;;;;;5026184;28;20030;-72
2020/12/17 07:58:26;;;;;;;87.00;28.00;;;2.20;99.90;;;;;;5018618;28;20030;-74
2020/12/17 08:00:55;;;;;;;87.10;27.67;;;2.20;99.90;;;;;;5024601;28;20050;-76
2020/12/17 08:03:22;;;;;;;116.55;28.20;;;2.20;99.90;;;;;;5022703;28;20037;-72
2020/12/17 08:05:48;;;;;;;71.55;25.00;;;2.30;99.90;;;;;;5025296;28;20045;-74
2020/12/17 08:08:18;;;;;;;64.60;25.25;;;2.30;99.90;;;;;;5024705;28;20032;-70
2020/12/17 08:10:45;;;;;;;68.40;22.88;;;2.40;99.90;;;;;;5026119;28;20029;-71
2020/12/17 08:13:11;;;;;;;77.80;27.15;;;2.50;99.90;;;;;;5034065;28;20033;-72
2020/12/17 08:15:36;;;;;;;118.65;29.25;;;2.50;99.90;;;;;;4998510;28;20158;-72
2020/12/17 08:18:04;;;;;;;72.32;26.35;;;2.50;99.90;;;;;;5024433;28;20036;-72
2020/12/17 08:20:31;;;;;;;49.15;25.05;;;2.40;99.90;;;;;;5028463;28;20486;-74
2020/12/17 08:22:56;;;;;;;53.70;28.63;;;2.40;99.90;;;;;;5022389;28;20418;-71
2020/12/17 08:25:24;;;;;;;71.68;28.95;;;2.50;99.90;;;;;;5028117;28;20029;-71
2020/12/17 08:27:51;;;;;;;51.72;25.40;;;2.60;99.90;;;;;;5026212;28;20029;-72
2020/12/17 08:30:21;;;;;;;62.63;26.25;;;2.70;99.90;;;;;;5019801;28;20380;-72
2020/12/17 08:32:54;;;;;;;55.55;26.05;;;2.80;99.90;;;;;;5023684;28;20030;-72
2020/12/17 08:35:26;;;;;;;56.25;25.77;;;2.60;99.90;;;;;;5011779;28;20052;-70
2020/12/17 08:37:55;;;;;;;65.85;28.10;;;2.70;99.90;;;;;;5018751;28;20029;-71
2020/12/17 08:40:25;;;;;;;70.97;28.92;;;2.70;99.90;;;;;;5021368;28;20180;-70
2020/12/17 08:42:58;;;;;;;59.00;28.35;;;2.80;99.90;;;;;;5032207;28;20475;-72
2020/12/17 08:45:25;;;;;;;77.78;32.15;;;2.80;99.90;;;;;;5032645;28;20033;-72
2020/12/17 08:47:57;;;;;;;80.88;34.28;;;2.60;99.90;;;;;;5032867;28;20025;-72
2020/12/17 08:50:23;;;;;;;67.68;32.45;;;2.70;99.90;;;;;;5018270;28;20034;-73
2020/12/17 08:52:49;;;;;;;57.80;31.98;;;2.80;99.90;;;;;;5027891;28;20159;-72
2020/12/17 08:55:16;;;;;;;55.72;27.92;;;2.90;99.90;;;;;;5029267;28;20464;-75
2020/12/17 08:57:41;;;;;;;68.18;31.80;;;3.00;99.90;;;;;;5030627;28;20029;-72
2020/12/17 09:00:16;;;;;;;77.55;30.83;;;3.00;99.90;;;;;;5030772;28;20037;-78
2020/12/17 09:02:42;;;;;;;84.43;33.83;;;2.90;99.90;;;;;;5026929;28;20033;-73
2020/12/17 09:05:12;;;;;;;67.07;35.00;;;2.90;99.90;;;;;;5023010;28;20036;-71
2020/12/17 09:07:40;;;;;;;68.57;32.95;;;2.90;99.90;;;;;;5032953;28;20025;-72
2020/12/17 09:10:10;;;;;;;65.25;33.45;;;3.00;99.90;;;;;;5032379;28;20024;-71
2020/12/17 09:12:36;;;;;;;68.50;35.38;;;3.00;99.90;;;;;;5024182;28;20391;-75
2020/12/17 09:15:10;;;;;;;71.45;35.25;;;3.00;99.90;;;;;;5032918;28;20029;-72
2020/12/17 09:17:36;;;;;;;69.32;33.47;;;3.00;99.90;;;;;;5021165;28;20037;-72
2020/12/17 09:20:17;;;;;;;67.35;34.10;;;3.10;99.90;;;;;;5022669;28;20026;-73
2020/12/17 09:22:45;;;;;;;67.93;35.67;;;3.10;99.90;;;;;;5019846;28;20029;-72
2020/12/17 09:25:12;;;;;;;63.15;35.40;;;3.10;99.90;;;;;;5019756;28;20117;-73
2020/12/17 09:27:38;;;;;;;65.70;30.08;;;3.10;99.90;;;;;;5018503;28;20026;-73
2020/12/17 09:30:13;;;;;;;55.78;30.33;;;3.20;99.90;;;;;;5024234;28;20032;-73
2020/12/17 09:32:54;;;;;;;59.60;28.77;;;3.30;99.90;;;;;;5032135;28;20104;-72
2020/12/17 09:35:32;;;;;;;59.15;31.50;;;3.30;99.90;;;;;;5036309;28;20152;-72
2020/12/17 09:38:05;;;;;;;56.65;30.08;;;3.30;99.90;;;;;;5028234;28;20101;-72
2020/12/17 09:40:32;;;;;;;59.22;29.10;;;3.30;99.90;;;;;;5036638;28;20022;-72
2020/12/17 09:43:07;;;;;;;51.45;27.83;;;3.30;99.90;;;;;;5025965;28;20033;-73
2020/12/17 09:45:55;;;;;;;51.95;25.67;;;3.40;99.90;;;;;;5018705;28;20033;-75
2020/12/17 09:48:27;;;;;;;53.03;27.95;;;3.40;99.90;;;;;;5022866;28;20025;-73
2020/12/17 09:51:00;;;;;;;53.90;26.77;;;3.40;99.90;;;;;;5028613;28;20161;-72
2020/12/17 09:53:29;;;;;;;49.47;26.95;;;3.50;99.90;;;;;;5024126;28;20034;-72
2020/12/17 09:55:55;;;;;;;47.72;24.58;;;3.50;99.90;;;;;;5007974;28;20029;-72
2020/12/17 09:58:21;;;;;;;48.80;27.08;;;3.60;99.90;;;;;;5026052;28;20021;-72
2020/12/17 10:00:47;;;;;;;46.63;26.95;;;3.60;99.90;;;;;;5025438;28;20046;-70
2020/12/17 10:03:13;;;;;;;45.53;26.52;;;3.60;99.90;;;;;;5021069;28;20072;-70
2020/12/17 10:05:39;;;;;;;54.90;28.60;;;3.50;99.90;;;;;;5028282;28;20045;-72
2020/12/17 10:08:06;;;;;;;45.97;25.85;;;3.50;99.90;;;;;;5036134;28;20028;-72
2020/12/17 10:10:34;;;;;;;65.18;32.22;;;3.50;99.90;;;;;;5032924;28;20476;-73
2020/12/17 10:13:03;;;;;;;48.97;28.33;;;3.50;99.90;;;;;;5017103;28;20049;-72
2020/12/17 10:15:30;;;;;;;51.45;27.13;;;3.60;99.90;;;;;;5011913;28;20105;-72
2020/12/17 10:17:57;;;;;;;44.88;27.58;;;3.70;99.90;;;;;;5032046;28;20018;-72
2020/12/17 10:20:23;;;;;;;53.92;30.88;;;3.80;99.90;;;;;;5029513;28;20017;-71
2020/12/17 10:22:50;;;;;;;62.72;34.92;;;3.90;99.90;;;;;;5035695;28;20451;-71
2020/12/17 10:25:18;;;;;;;67.95;37.10;;;4.00;99.90;;;;;;5028091;28;20022;-72
2020/12/17 10:27:44;;;;;;;56.47;32.67;;;4.10;99.90;;;;;;5029353;28;20459;-70
2020/12/17 10:30:10;;;;;;;55.45;31.55;;;4.20;99.90;;;;;;5035301;28;20543;-73
2020/12/17 10:32:37;;;;;;;54.22;32.35;;;4.30;99.90;;;;;;5035863;28;20041;-72
2020/12/17 10:35:05;;;;;;;64.32;36.08;;;;;;;;;;5029156;28;20021;-71
2020/12/17 10:37:31;;;;;;;63.05;36.55;;;4.40;99.90;;;;;;5031800;28;20069;-71
2020/12/17 10:39:57;;;;;;;62.67;36.97;;;4.50;99.90;;;;;;5034724;28;20053;-71
2020/12/17 10:42:23;;;;;;;61.55;33.45;;;4.50;99.90;;;;;;5012271;28;20033;-70
2020/12/17 10:44:49;;;;;;;62.03;32.97;;;4.50;99.90;;;;;;5035009;28;20026;-71
2020/12/17 10:47:19;;;;;;;59.47;33.83;;;4.40;99.90;;;;;;5023217;28;20028;-71
2020/12/17 10:49:45;;;;;;;57.53;33.85;;;4.40;99.90;;;;;;5024449;28;20029;-71
2020/12/17 10:52:11;;;;;;;59.05;32.95;;;4.30;99.90;;;;;;5023026;28;20049;-71
2020/12/17 10:54:38;;;;;;;55.40;31.27;;;4.40;99.90;;;;;;5026636;28;20160;-71
2020/12/17 10:57:04;;;;;;;57.25;32.35;;;4.50;99.90;;;;;;5034547;28;20037;-69
2020/12/17 10:59:29;;;;;;;48.95;29.08;;;4.70;99.90;;;;;;5034659;28;20025;-70
2020/12/17 11:01:58;;;;;;;49.70;28.88;;;4.70;99.90;;;;;;5035054;28;20029;-72
2020/12/17 11:04:24;;;;;;;48.50;28.13;;;4.70;99.90;;;;;;5028192;28;20040;-72
2020/12/17 11:06:54;;;;;;;55.10;30.75;;;4.90;99.90;;;;;;5035021;28;20047;-71
2020/12/17 11:09:20;;;;;;;49.78;29.48;;;5.00;99.90;;;;;;5035088;28;20498;-70
2020/12/17 11:11:45;;;;;;;46.30;28.48;;;5.00;99.90;;;;;;5028576;28;20034;-71
2020/12/17 11:14:11;;;;;;;52.50;29.92;;;4.90;99.90;;;;;;5030960;28;20419;-70
2020/12/17 11:16:37;;;;;;;49.10;29.85;;;4.90;99.90;;;;;;5027788;28;20040;-70
2020/12/17 11:19:03;;;;;;;52.92;29.30;;;4.70;99.90;;;;;;5011182;28;20021;-70
2020/12/17 11:21:29;;;;;;;44.78;27.88;;;4.80;99.90;;;;;;5029158;28;20108;-71
2020/12/17 11:23:54;;;;;;;55.03;27.90;;;4.80;99.90;;;;;;5034395;28;20156;-71
2020/12/17 11:26:20;;;;;;;50.25;30.70;;;4.90;99.90;;;;;;5034033;28;20053;-72
2020/12/17 11:28:46;;;;;;;62.08;31.92;;;4.80;99.90;;;;;;5034561;28;20021;-72
2020/12/17 11:31:12;;;;;;;56.55;31.77;;;4.80;99.90;;;;;;5023393;28;20030;-72
2020/12/17 11:33:38;;;;;;;61.53;33.42;;;4.90;99.90;;;;;;5032062;28;20490;-71
2020/12/17 11:36:05;;;;;;;67.57;37.53;;;5.00;99.90;;;;;;5034233;28;20017;-70
2020/12/17 11:38:30;;;;;;;71.55;40.30;;;5.10;99.90;;;;;;5034402;28;20021;-71
2020/12/17 11:40:56;;;;;;;85.72;46.15;;;5.10;99.90;;;;;;5034206;28;20041;-71
2020/12/17 11:43:22;;;;;;;81.55;45.28;;;5.00;99.90;;;;;;5034063;28;20025;-71
2020/12/17 11:45:48;;;;;;;92.10;49.60;;;5.20;99.90;;;;;;5033774;28;20030;-71
2020/12/17 11:48:13;;;;;;;96.55;48.97;;;5.30;99.90;;;;;;5033664;28;20025;-71
2020/12/17 11:50:39;;;;;;;96.90;53.33;;;5.40;99.90;;;;;;5024175;28;20037;-71
2020/12/17 11:53:05;;;;;;;105.35;57.65;;;5.40;99.90;;;;;;5015565;28;20104;-72
2020/12/17 11:55:31;;;;;;;95.43;53.83;;;5.40;99.90;;;;;;5007446;28;20052;-71
2020/12/17 11:57:56;;;;;;;100.22;59.42;;;5.30;99.90;;;;;;5023118;28;20029;-72
2020/12/17 12:00:22;;;;;;;92.30;53.97;;;5.30;99.90;;;;;;5015514;28;20087;-71
2020/12/17 12:02:50;;;;;;;99.70;51.92;;;5.30;99.90;;;;;;5026340;28;20041;-70
2020/12/17 12:05:17;;;;;;;75.05;43.72;;;5.30;99.90;;;;;;5015185;28;20052;-70
2020/12/17 12:07:43;;;;;;;88.97;46.17;;;5.40;99.90;;;;;;5026946;28;20038;-71
2020/12/17 12:10:09;;;;;;;98.65;49.97;;;5.50;99.90;;;;;;5016167;28;20018;-71
2020/12/17 12:12:35;;;;;;;95.97;47.42;;;5.60;99.90;;;;;;5016126;28;20040;-71
2020/12/17 12:15:01;;;;;;;88.75;49.53;;;5.60;99.90;;;;;;5008743;28;20029;-71
2020/12/17 12:17:26;;;;;;;105.82;58.60;;;5.60;99.90;;;;;;4999161;28;20033;-72
2020/12/17 12:19:52;;;;;;;100.07;54.80;;;5.60;99.90;;;;;;5031942;28;20033;-72
2020/12/17 12:22:18;;;;;;;109.35;60.92;;;5.60;99.90;;;;;;5030587;28;20467;-73
2020/12/17 12:24:44;;;;;;;116.72;62.15;;;5.70;99.90;;;;;;5033816;28;20037;-69
2020/12/17 12:27:09;;;;;;;133.65;76.10;;;5.60;99.90;;;;;;5015548;28;20033;-70
2020/12/17 12:29:35;;;;;;;129.98;79.18;;;5.60;99.90;;;;;;5021578;28;20467;-71
2020/12/17 12:32:01;;;;;;;138.85;78.50;;;5.70;99.90;;;;;;5022042;28;20491;-70
2020/12/17 12:34:27;;;;;;;140.93;81.80;;;5.70;99.90;;;;;;5002711;28;20463;-70
2020/12/17 12:36:54;;;;;;;159.13;83.40;;;5.60;99.90;;;;;;5027187;28;20030;-71
2020/12/17 12:39:21;;;;;;;151.55;86.28;;;5.50;99.90;;;;;;5015404;28;20041;-71
2020/12/17 12:41:48;;;;;;;157.45;90.57;;;5.40;99.90;;;;;;5017518;28;20087;-71